Time;durP1;ratioP1;P1;durP2;ratioP2;P2;SDS_P1;SDS_P2;PMS_P1;PMS_P2;Temp;Humidity;BMP_temperature;BMP_pressure;BME280_temperature;BME280_humidity;BME280_pressure;Samples;Min_cycle;Max_cycle;Signal;HPM_P1;HPM_P2
2021/07/28 00:02:17;;;;;;;19.48;16.00;;;16.40;99.90;;;;;;5086106;27;20031;-83
2021/07/28 00:04:43;;;;;;;22.00;15.57;;;16.30;99.90;;;;;;5089444;27;20051;-83
2021/07/28 00:07:10;;;;;;;20.88;15.80;;;16.30;99.90;;;;;;5061470;27;20039;-82
2021/07/28 00:09:36;;;;;;;18.40;16.40;;;16.30;99.90;;;;;;5102806;27;20050;-82
2021/07/28 00:12:03;;;;;;;21.80;17.90;;;16.30;99.90;;;;;;5098292;27;20404;-85
2021/07/28 00:14:29;;;;;;;23.35;16.27;;;16.30;99.90;;;;;;5107661;27;20043;-82
2021/07/28 00:16:56;;;;;;;23.88;17.73;;;16.20;99.90;;;;;;5117294;27;20542;-84
2021/07/28 00:19:25;;;;;;;21.80;16.85;;;16.20;99.90;;;;;;5094134;27;20084;-83
2021/07/28 00:24:36;;;;;;;22.25;15.57;;;16.20;99.90;;;;;;5104113;27;20043;-82
2021/07/28 00:27:04;;;;;;;24.42;16.55;;;16.20;99.90;;;;;;5121654;27;20392;-83
2021/07/28 00:29:31;;;;;;;20.48;16.60;;;16.20;99.90;;;;;;5095941;28;20032;-83
2021/07/28 00:31:58;;;;;;;23.25;18.40;;;16.20;99.90;;;;;;5091677;28;20043;-83
2021/07/28 00:34:24;;;;;;;24.27;16.88;;;16.20;99.90;;;;;;5072734;28;20075;-84
2021/07/28 00:36:50;;;;;;;23.63;18.23;;;16.10;99.90;;;;;;5125948;27;20114;-84
2021/07/28 00:39:16;;;;;;;23.38;16.77;;;16.10;99.90;;;;;;5055811;28;20130;-84
2021/07/28 00:41:43;;;;;;;24.55;18.00;;;16.10;99.90;;;;;;5095030;28;20046;-85
2021/07/28 00:44:10;;;;;;;22.38;17.48;;;16.00;99.90;;;;;;5085407;28;20040;-83
2021/07/28 00:46:36;;;;;;;26.50;18.13;;;16.00;99.90;;;;;;5075609;27;20035;-82
2021/07/28 00:49:03;;;;;;;20.25;16.13;;;16.00;99.90;;;;;;5091869;28;20401;-83
2021/07/28 00:51:29;;;;;;;23.15;17.15;;;16.00;99.90;;;;;;5091360;27;20034;-84
2021/07/28 00:53:57;;;;;;;31.05;18.98;;;16.00;99.90;;;;;;5106959;27;20122;-82
2021/07/28 00:56:25;;;;;;;24.13;18.90;;;16.00;99.90;;;;;;5082818;28;20046;-83
2021/07/28 00:58:51;;;;;;;23.77;19.00;;;15.90;99.90;;;;;;5108457;27;20112;-83
2021/07/28 01:01:17;;;;;;;22.63;18.52;;;15.90;99.90;;;;;;5075906;28;20092;-85
2021/07/28 01:03:43;;;;;;;24.50;18.40;;;15.90;99.90;;;;;;5095267;27;20079;-83
2021/07/28 01:06:10;;;;;;;25.20;18.70;;;15.90;99.90;;;;;;5074522;28;20040;-84
2021/07/28 01:08:36;;;;;;;26.15;19.23;;;15.90;99.90;;;;;;5097106;27;20040;-83
2021/07/28 01:11:04;;;;;;;28.27;21.67;;;15.90;99.90;;;;;;5102656;28;20047;-82
2021/07/28 01:13:34;;;;;;;24.17;19.80;;;15.90;99.90;;;;;;5105028;28;20494;-84
2021/07/28 01:16:19;;;;;;;31.25;20.75;;;15.80;99.90;;;;;;5105073;28;20076;-82
2021/07/28 01:18:46;;;;;;;24.08;18.15;;;15.80;99.90;;;;;;5090941;28;20108;-82
2021/07/28 01:21:13;;;;;;;27.42;19.55;;;15.80;99.90;;;;;;5103610;28;20027;-83
2021/07/28 01:23:42;;;;;;;26.17;20.30;;;15.80;99.90;;;;;;5106540;28;20050;-84
2021/07/28 01:26:11;;;;;;;25.65;18.52;;;15.80;99.90;;;;;;5103656;28;20050;-83
2021/07/28 01:28:37;;;;;;;26.55;20.08;;;15.80;99.90;;;;;;5109859;28;20044;-83
2021/07/28 01:31:13;;;;;;;29.90;21.20;;;15.80;99.90;;;;;;5101511;28;20067;-84
2021/07/28 01:33:42;;;;;;;35.92;22.08;;;15.80;99.90;;;;;;5101868;28;20044;-84
2021/07/28 01:36:12;;;;;;;30.15;21.25;;;15.80;99.90;;;;;;5091490;28;20517;-82
2021/07/28 01:38:39;;;;;;;26.77;19.63;;;15.70;99.90;;;;;;5111401;28;20055;-83
2021/07/28 01:41:07;;;;;;;34.50;22.80;;;15.70;99.90;;;;;;5105460;28;20104;-83
2021/07/28 01:43:33;;;;;;;28.95;20.13;;;15.70;99.90;;;;;;5114983;27;20046;-84
2021/07/28 01:46:01;;;;;;;25.65;19.10;;;15.70;99.90;;;;;;5098850;28;20067;-84
2021/07/28 01:48:28;;;;;;;35.20;22.15;;;15.70;99.90;;;;;;5090487;28;20093;-83
2021/07/28 01:50:54;;;;;;;30.63;20.30;;;15.60;99.90;;;;;;5103916;28;20082;-83
2021/07/28 01:53:21;;;;;;;27.98;21.70;;;15.70;99.90;;;;;;5068984;28;20039;-83
2021/07/28 01:55:47;;;;;;;25.58;20.95;;;15.60;99.90;;;;;;5107120;27;20083;-82
2021/07/28 01:58:14;;;;;;;29.02;20.48;;;15.70;99.90;;;;;;5066815;27;20039;-83
2021/07/28 02:00:41;;;;;;;27.15;20.88;;;15.60;99.90;;;;;;5114221;27;20594;-83
2021/07/28 02:03:08;;;;;;;33.53;23.02;;;15.60;99.90;;;;;;5090601;28;20067;-83
2021/07/28 02:05:37;;;;;;;25.98;18.70;;;15.60;99.90;;;;;;5106695;28;20063;-84
2021/07/28 02:08:05;;;;;;;30.92;22.75;;;15.60;99.90;;;;;;5104468;28;20036;-83
2021/07/28 02:10:39;;;;;;;27.92;21.02;;;15.60;99.90;;;;;;5077007;28;20040;-84
2021/07/28 02:13:06;;;;;;;32.58;23.58;;;15.60;99.90;;;;;;5105713;28;20050;-83
2021/07/28 02:15:35;;;;;;;36.95;23.27;;;15.60;99.90;;;;;;5079401;28;20036;-82
2021/07/28 02:18:02;;;;;;;40.27;25.20;;;15.60;99.90;;;;;;5089981;28;20059;-82
2021/07/28 02:20:29;;;;;;;31.38;21.42;;;15.60;99.90;;;;;;5089855;28;20194;-83
2021/07/28 02:22:55;;;;;;;33.78;23.00;;;15.60;99.90;;;;;;5079348;28;20104;-82
2021/07/28 02:25:24;;;;;;;32.35;22.38;;;15.60;99.90;;;;;;5084882;28;20115;-83
2021/07/28 02:27:50;;;;;;;36.15;23.55;;;15.60;99.90;;;;;;5099562;28;20482;-82
2021/07/28 02:30:22;;;;;;;36.55;24.13;;;15.60;99.90;;;;;;5091570;28;20039;-84
2021/07/28 02:32:49;;;;;;;39.80;24.60;;;15.60;99.90;;;;;;5109041;28;20047;-83
2021/07/28 02:35:15;;;;;;;29.15;21.95;;;15.60;99.90;;;;;;5087345;28;20119;-83
2021/07/28 02:37:43;;;;;;;34.50;23.73;;;15.60;99.90;;;;;;5086711;28;20092;-83
2021/07/28 02:40:12;;;;;;;36.33;24.63;;;15.60;99.90;;;;;;5107644;28;20108;-82
2021/07/28 02:42:38;;;;;;;34.35;24.45;;;15.60;99.90;;;;;;5087738;28;20068;-83
2021/07/28 02:45:06;;;;;;;31.63;22.60;;;15.50;99.90;;;;;;5103534;28;20031;-82
2021/07/28 02:47:32;;;;;;;30.63;21.33;;;15.50;99.90;;;;;;5107059;28;20039;-81
2021/07/28 02:49:58;;;;;;;35.15;24.10;;;15.50;99.90;;;;;;5103339;28;20042;-81
2021/07/28 02:52:23;;;;;;;34.17;23.17;;;15.50;99.90;;;;;;5081628;28;20039;-82
2021/07/28 02:54:49;;;;;;;32.25;22.60;;;15.50;99.90;;;;;;5069205;28;20135;-83
2021/07/28 02:57:15;;;;;;;32.33;22.60;;;15.50;99.90;;;;;;5072056;28;20039;-82
2021/07/28 02:59:41;;;;;;;30.73;21.38;;;15.50;99.90;;;;;;5093477;28;20039;-83
2021/07/28 03:02:07;;;;;;;33.60;23.60;;;15.40;99.90;;;;;;5072474;28;20474;-83
2021/07/28 03:04:33;;;;;;;31.63;23.45;;;15.50;99.90;;;;;;5101458;28;20369;-81
2021/07/28 03:06:59;;;;;;;34.58;24.23;;;15.40;99.90;;;;;;5084392;28;20039;-81
2021/07/28 03:09:25;;;;;;;35.67;22.77;;;15.40;99.90;;;;;;5088053;28;20051;-82
2021/07/28 03:11:50;;;;;;;32.80;24.42;;;15.40;99.90;;;;;;5061897;28;20441;-82
2021/07/28 03:14:16;;;;;;;34.95;24.10;;;15.40;99.90;;;;;;5084411;28;20031;-82
2021/07/28 03:16:42;;;;;;;37.40;24.85;;;15.50;99.90;;;;;;5099585;28;20152;-81
2021/07/28 03:19:08;;;;;;;36.33;24.75;;;15.40;99.90;;;;;;5080403;28;20472;-81
2021/07/28 03:21:34;;;;;;;36.08;24.65;;;15.40;99.90;;;;;;5063982;28;20032;-82
2021/07/28 03:24:00;;;;;;;36.90;23.92;;;15.30;99.90;;;;;;5069045;28;20621;-82
2021/07/28 03:26:27;;;;;;;44.95;26.45;;;15.30;99.90;;;;;;5056496;28;20283;-81
2021/07/28 03:28:53;;;;;;;39.80;26.08;;;15.30;99.90;;;;;;5113576;27;20032;-83
2021/07/28 03:31:19;;;;;;;39.20;26.52;;;15.30;99.90;;;;;;5092225;28;20040;-83
2021/07/28 03:33:48;;;;;;;34.33;23.67;;;15.30;99.90;;;;;;5075676;28;20490;-83
2021/07/28 03:36:15;;;;;;;44.63;27.67;;;15.30;99.90;;;;;;5074037;27;20502;-84
2021/07/28 03:38:41;;;;;;;37.40;24.58;;;15.30;99.90;;;;;;5078414;28;20170;-83
2021/07/28 03:41:07;;;;;;;40.95;26.08;;;15.30;99.90;;;;;;5078245;27;20154;-83
2021/07/28 03:43:37;;;;;;;;;;;15.30;99.90;;;;;;5081075;27;20797;-83
2021/07/28 03:46:05;;;;;;;39.28;25.88;;;15.30;99.90;;;;;;5083225;27;19934;-82
2021/07/28 03:48:31;;;;;;;40.63;25.48;;;15.30;99.90;;;;;;5069432;28;20040;-83
2021/07/28 03:50:58;;;;;;;36.85;24.67;;;15.20;99.90;;;;;;5109029;27;20115;-82
2021/07/28 03:53:24;;;;;;;32.38;24.15;;;15.20;99.90;;;;;;5112777;27;20145;-83
2021/07/28 03:55:50;;;;;;;39.30;24.00;;;15.20;99.90;;;;;;5073369;28;20528;-82
2021/07/28 03:58:17;;;;;;;39.45;24.65;;;15.20;99.90;;;;;;5072797;28;20039;-83
2021/07/28 04:00:43;;;;;;;43.08;26.55;;;15.20;99.90;;;;;;5103453;27;20055;-83
2021/07/28 04:03:11;;;;;;;38.83;25.17;;;15.20;99.90;;;;;;5085930;28;20042;-83
2021/07/28 04:05:38;;;;;;;42.03;25.90;;;15.20;99.90;;;;;;5075080;28;20046;-83
2021/07/28 04:08:04;;;;;;;36.20;23.67;;;15.20;99.90;;;;;;5096020;28;20036;-81
2021/07/28 04:10:30;;;;;;;35.53;24.63;;;15.20;99.90;;;;;;5059423;28;20043;-82
2021/07/28 04:12:56;;;;;;;42.22;25.23;;;15.20;99.90;;;;;;5107851;28;20032;-83
2021/07/28 04:15:23;;;;;;;43.88;26.05;;;15.20;99.90;;;;;;5073205;28;20371;-84
2021/07/28 04:17:48;;;;;;;39.90;25.67;;;15.20;99.90;;;;;;5109632;28;20035;-82
2021/07/28 04:20:15;;;;;;;32.70;23.25;;;15.30;99.90;;;;;;5068298;28;20043;-81
2021/07/28 04:22:42;;;;;;;44.30;26.25;;;15.30;99.90;;;;;;5106225;28;21177;-82
2021/07/28 04:25:12;;;;;;;35.50;24.08;;;15.30;99.90;;;;;;5106335;28;20496;-83
2021/07/28 04:27:38;;;;;;;;;;;15.30;99.90;;;;;;5096456;28;20036;-83
2021/07/28 04:30:05;;;;;;;43.10;25.70;;;15.30;99.90;;;;;;5085060;28;19959;-82
2021/07/28 04:32:31;;;;;;;37.58;23.88;;;15.30;99.90;;;;;;5106340;28;20043;-83
2021/07/28 04:34:57;;;;;;;41.85;24.67;;;15.30;99.90;;;;;;5105390;28;20048;-80
2021/07/28 04:37:24;;;;;;;40.40;25.55;;;15.30;99.90;;;;;;5105297;28;20589;-81
2021/07/28 04:39:50;;;;;;;41.53;24.48;;;15.40;99.90;;;;;;5086609;28;20048;-82
2021/07/28 04:42:16;;;;;;;33.65;23.95;;;15.40;99.90;;;;;;5068094;28;20055;-84
2021/07/28 04:44:42;;;;;;;36.20;23.40;;;15.40;99.90;;;;;;5089260;27;20091;-83
2021/07/28 04:47:08;;;;;;;37.28;24.38;;;15.40;99.90;;;;;;5096553;28;20095;-83
2021/07/28 04:49:34;;;;;;;34.10;23.92;;;15.40;99.90;;;;;;5089590;27;20043;-82
2021/07/28 04:52:00;;;;;;;39.88;25.48;;;15.50;99.90;;;;;;5068058;28;21884;-81
2021/07/28 04:54:30;;;;;;;34.85;25.10;;;15.50;99.90;;;;;;5084332;28;20028;-81
2021/07/28 04:56:55;;;;;;;35.23;24.87;;;15.60;99.90;;;;;;5089306;28;20497;-81
2021/07/28 04:59:23;;;;;;;36.90;24.45;;;15.60;99.90;;;;;;5066325;28;20282;-81
2021/07/28 05:01:49;;;;;;;39.53;27.27;;;15.70;99.90;;;;;;5107269;27;20041;-80
2021/07/28 05:04:15;;;;;;;42.38;27.52;;;15.80;99.90;;;;;;5108036;28;20043;-80
2021/07/28 05:06:42;;;;;;;35.28;25.10;;;15.80;99.90;;;;;;5103180;27;20043;-81
2021/07/28 05:09:12;;;;;;;35.13;24.45;;;15.90;99.90;;;;;;5092806;27;20067;-81
2021/07/28 05:11:39;;;;;;;43.40;27.50;;;15.90;99.90;;;;;;5113307;27;20030;-80
2021/07/28 05:14:05;;;;;;;39.70;26.88;;;15.90;99.90;;;;;;5108692;27;20050;-81
2021/07/28 05:16:31;;;;;;;38.28;27.48;;;16.00;99.90;;;;;;5071055;27;20043;-81
2021/07/28 05:19:00;;;;;;;41.72;28.40;;;16.00;99.90;;;;;;5101826;27;20031;-81
2021/07/28 05:21:26;;;;;;;36.03;26.45;;;16.00;99.90;;;;;;5075348;27;20504;-81
2021/07/28 05:23:52;;;;;;;39.05;27.90;;;16.00;99.90;;;;;;5103497;27;20039;-80
2021/07/28 05:26:18;;;;;;;42.13;29.00;;;16.10;99.90;;;;;;5082136;27;20054;-82
2021/07/28 05:28:44;;;;;;;37.28;28.40;;;16.10;99.90;;;;;;5094883;27;20035;-82
2021/07/28 05:31:09;;;;;;;43.95;30.63;;;16.20;99.90;;;;;;5097500;27;20597;-82
2021/07/28 05:33:35;;;;;;;44.38;32.38;;;16.20;99.90;;;;;;5075044;27;20063;-81
2021/07/28 05:36:01;;;;;;;38.58;29.58;;;16.20;99.90;;;;;;5098910;27;20038;-81
2021/07/28 05:38:28;;;;;;;46.60;31.77;;;16.30;99.90;;;;;;5111437;27;20432;-81
2021/07/28 05:40:55;;;;;;;42.95;32.42;;;16.30;99.90;;;;;;5082342;27;20501;-81
2021/07/28 05:43:25;;;;;;;46.90;33.35;;;16.40;99.90;;;;;;5079294;27;20046;-80
2021/07/28 05:45:51;;;;;;;45.67;33.17;;;16.50;99.90;;;;;;5101565;27;20062;-80
2021/07/28 05:48:17;;;;;;;43.15;31.83;;;16.50;99.90;;;;;;5090473;27;20379;-80
2021/07/28 05:50:43;;;;;;;44.75;32.97;;;16.50;99.90;;;;;;5127402;27;20285;-83
2021/07/28 05:53:09;;;;;;;36.35;28.58;;;16.60;99.90;;;;;;5096859;27;20386;-81
2021/07/28 05:55:35;;;;;;;43.45;32.15;;;16.60;99.90;;;;;;5119937;27;20481;-82
2021/07/28 05:58:01;;;;;;;44.22;32.95;;;16.60;99.90;;;;;;5099727;27;20447;-81
2021/07/28 06:00:27;;;;;;;44.15;31.10;;;16.60;99.90;;;;;;5100477;27;20052;-81
2021/07/28 06:02:53;;;;;;;39.60;30.75;;;16.60;99.90;;;;;;5109865;27;20116;-82
2021/07/28 06:05:20;;;;;;;39.25;29.55;;;16.60;99.90;;;;;;5097730;27;20163;-83
2021/07/28 06:07:47;;;;;;;40.03;31.13;;;16.70;99.90;;;;;;5082179;27;20047;-82
2021/07/28 06:10:16;;;;;;;40.60;28.95;;;16.60;99.90;;;;;;5112292;27;20399;-82
2021/07/28 06:12:42;;;;;;;40.25;30.17;;;16.60;99.90;;;;;;5076238;27;20160;-82
2021/07/28 06:15:12;;;;;;;36.83;28.30;;;16.60;99.90;;;;;;5100429;27;20110;-82
2021/07/28 06:17:38;;;;;;;33.92;27.83;;;16.70;99.90;;;;;;5102280;27;20039;-81
2021/07/28 06:20:05;;;;;;;36.55;28.17;;;16.70;99.90;;;;;;5094969;27;20043;-80
2021/07/28 06:22:31;;;;;;;38.30;28.83;;;16.70;99.90;;;;;;5101168;27;20089;-82
2021/07/28 06:24:57;;;;;;;31.95;26.63;;;16.70;99.90;;;;;;5075146;27;20105;-82
2021/07/28 06:27:23;;;;;;;36.00;27.65;;;16.80;99.90;;;;;;5103267;27;20046;-82
2021/07/28 06:29:49;;;;;;;36.47;28.08;;;16.80;99.90;;;;;;5097786;27;20035;-81
2021/07/28 06:32:14;;;;;;;37.40;29.15;;;16.80;99.90;;;;;;5102234;27;20039;-81
2021/07/28 06:34:41;;;;;;;37.17;28.00;;;16.80;99.90;;;;;;5095635;27;20039;-80
2021/07/28 06:37:09;;;;;;;37.05;28.70;;;16.80;99.90;;;;;;5109480;27;20065;-80
2021/07/28 06:39:36;;;;;;;36.58;28.88;;;16.90;99.90;;;;;;5092928;27;20031;-81
2021/07/28 06:42:02;;;;;;;35.30;28.48;;;16.90;99.90;;;;;;5130952;27;20674;-81
2021/07/28 06:44:28;;;;;;;39.72;29.90;;;17.00;99.90;;;;;;5111382;27;20048;-81
2021/07/28 06:46:53;;;;;;;35.35;28.25;;;17.00;99.90;;;;;;5088774;27;20481;-81
2021/07/28 06:49:19;;;;;;;29.27;24.88;;;17.00;99.90;;;;;;5110129;27;20097;-82
2021/07/28 06:51:45;;;;;;;32.05;25.65;;;17.10;99.90;;;;;;5112303;27;20092;-82
2021/07/28 06:54:11;;;;;;;34.10;26.85;;;17.10;99.90;;;;;;5091108;27;20116;-80
2021/07/28 06:56:37;;;;;;;30.92;26.42;;;17.10;99.90;;;;;;5065388;27;20051;-82
2021/07/28 06:59:03;;;;;;;34.47;28.52;;;17.10;99.90;;;;;;5115628;27;20055;-81
2021/07/28 07:01:31;;;;;;;31.00;26.75;;;17.10;99.90;;;;;;5115862;27;20035;-80
2021/07/28 07:03:56;;;;;;;33.13;27.13;;;17.10;99.90;;;;;;5094496;27;20034;-79
2021/07/28 07:06:22;;;;;;;31.48;26.60;;;17.10;99.90;;;;;;5092694;27;20074;-80
2021/07/28 07:08:48;;;;;;;34.78;27.15;;;17.10;99.90;;;;;;5073353;27;20067;-79
2021/07/28 07:11:14;;;;;;;33.80;26.48;;;17.20;99.90;;;;;;5050499;28;20094;-81
2021/07/28 07:13:40;;;;;;;30.02;25.05;;;17.20;99.90;;;;;;5080597;28;20505;-81
2021/07/28 07:16:06;;;;;;;32.33;25.80;;;17.20;99.90;;;;;;5062584;28;20546;-78
2021/07/28 07:18:32;;;;;;;31.23;26.40;;;17.20;99.90;;;;;;5058691;28;20071;-79
2021/07/28 07:20:58;;;;;;;27.70;24.73;;;17.30;99.90;;;;;;5055191;28;20036;-80
2021/07/28 07:23:24;;;;;;;31.05;25.77;;;17.30;99.90;;;;;;5042467;28;20101;-79
2021/07/28 07:25:50;;;;;;;32.15;27.10;;;17.40;99.90;;;;;;5073394;28;20045;-78
2021/07/28 07:28:16;;;;;;;29.30;24.38;;;17.40;99.90;;;;;;5058608;28;20059;-79
2021/07/28 07:30:41;;;;;;;27.73;24.77;;;17.50;99.90;;;;;;5058960;28;20073;-79
2021/07/28 07:35:51;;;;;;;28.63;24.48;;;17.60;99.90;;;;;;5079047;28;20028;-79
2021/07/28 07:38:17;;;;;;;30.38;24.90;;;17.60;99.90;;;;;;5072555;28;20471;-78
2021/07/28 07:40:44;;;;;;;31.90;25.90;;;17.70;99.90;;;;;;5072103;28;20067;-80
2021/07/28 07:43:11;;;;;;;29.98;25.13;;;17.80;99.90;;;;;;5044213;28;20506;-79
2021/07/28 07:45:37;;;;;;;31.85;25.80;;;17.90;99.90;;;;;;5080952;28;20040;-80
2021/07/28 07:48:06;;;;;;;28.60;25.52;;;18.00;99.90;;;;;;5057859;28;20045;-79
2021/07/28 07:50:35;;;;;;;28.30;24.67;;;18.00;99.90;;;;;;5053831;28;20039;-80
2021/07/28 07:53:03;;;;;;;28.63;24.30;;;18.10;99.90;;;;;;5059231;28;20036;-77
2021/07/28 07:55:29;;;;;;;27.27;24.25;;;18.30;99.90;;;;;;5047359;28;20047;-78
2021/07/28 07:57:55;;;;;;;26.20;23.02;;;18.50;99.90;;;;;;5075683;28;20494;-78
2021/07/28 08:00:21;;;;;;;26.83;23.00;;;18.60;99.90;;;;;;5078247;28;20032;-78
2021/07/28 08:02:47;;;;;;;26.05;22.50;;;18.70;99.90;;;;;;5056148;28;20098;-78
2021/07/28 08:05:13;;;;;;;27.02;23.02;;;18.70;99.90;;;;;;5066158;28;20701;-77
2021/07/28 08:07:42;;;;;;;30.00;24.65;;;18.80;99.90;;;;;;5071020;28;20052;-77
2021/07/28 08:10:08;;;;;;;26.10;23.08;;;18.70;99.90;;;;;;5089502;28;20048;-78
2021/07/28 08:12:35;;;;;;;27.73;22.88;;;18.70;99.90;;;;;;5087408;28;20522;-78
2021/07/28 08:15:01;;;;;;;25.77;22.40;;;18.60;99.90;;;;;;5085928;27;20038;-77
2021/07/28 08:17:26;;;;;;;27.17;21.83;;;18.60;99.90;;;;;;5090722;28;20044;-79
2021/07/28 08:19:56;;;;;;;25.42;22.85;;;18.60;99.90;;;;;;5090499;28;20048;-77
2021/07/28 08:22:22;;;;;;;24.52;21.38;;;18.60;99.90;;;;;;5094303;27;20139;-79
2021/07/28 08:24:48;;;;;;;25.35;22.15;;;18.60;99.90;;;;;;5085830;28;20158;-77
2021/07/28 08:27:14;;;;;;;24.20;21.52;;;18.50;99.90;;;;;;5106164;28;20039;-81
2021/07/28 08:29:40;;;;;;;24.88;21.48;;;18.40;99.90;;;;;;5093147;27;20733;-78
2021/07/28 08:32:06;;;;;;;24.17;21.25;;;18.40;99.90;;;;;;5092843;28;20500;-77
2021/07/28 08:34:33;;;;;;;24.83;20.88;;;18.40;99.90;;;;;;5089276;27;20035;-78
2021/07/28 08:36:59;;;;;;;23.70;21.20;;;18.40;99.90;;;;;;5079204;27;20901;-77
2021/07/28 08:39:29;;;;;;;25.17;20.75;;;18.50;99.90;;;;;;5094170;27;20039;-80
2021/07/28 08:42:03;;;;;;;22.20;19.90;;;18.50;99.90;;;;;;5089601;27;20065;-82
2021/07/28 08:44:35;;;;;;;22.52;19.95;;;18.70;99.90;;;;;;5109350;27;20115;-80
2021/07/28 08:47:01;;;;;;;23.98;20.33;;;18.90;99.90;;;;;;5114518;27;20066;-80
2021/07/28 08:49:27;;;;;;;21.27;18.38;;;19.30;99.90;;;;;;5106715;27;20092;-80
2021/07/28 08:51:53;;;;;;;20.70;18.58;;;19.50;99.90;;;;;;5106348;27;20054;-83
2021/07/28 08:54:20;;;;;;;19.58;17.42;;;19.70;99.90;;;;;;5090012;28;20028;-80
2021/07/28 08:56:47;;;;;;;19.40;17.15;;;19.70;99.60;;;;;;5081157;28;20410;-80
2021/07/28 08:59:24;;;;;;;21.48;17.77;;;19.70;99.10;;;;;;5088496;27;20035;-79
2021/07/28 09:01:50;;;;;;;19.35;17.20;;;19.70;98.50;;;;;;5105053;27;20159;-80
2021/07/28 09:04:17;;;;;;;21.63;19.20;;;19.50;98.30;;;;;;5102933;28;20043;-79
2021/07/28 09:06:43;;;;;;;19.50;17.42;;;19.50;99.30;;;;;;5053536;28;20521;-80
2021/07/28 09:09:10;;;;;;;20.60;17.10;;;19.70;99.80;;;;;;5090375;27;20071;-83
2021/07/28 09:11:59;;;;;;;18.63;15.40;;;19.90;99.90;;;;;;5093974;27;21422;-78
2021/07/28 09:14:31;;;;;;;17.00;15.18;;;20.30;98.40;;;;;;5107884;27;20118;-80
2021/07/28 09:17:19;;;;;;;15.52;13.93;;;20.50;98.40;;;;;;5105848;27;20038;-82
2021/07/28 09:19:47;;;;;;;15.43;13.80;;;20.90;96.80;;;;;;5105978;27;20106;-80
2021/07/28 09:22:14;;;;;;;14.80;13.30;;;21.00;95.40;;;;;;5108682;27;20038;-80
2021/07/28 09:24:42;;;;;;;15.63;11.70;;;21.20;95.70;;;;;;5105623;27;20077;-80
2021/07/28 09:27:39;;;;;;;14.88;12.32;;;21.30;95.60;;;;;;5097169;27;20031;-74
2021/07/28 09:30:06;;;;;;;13.15;11.20;;;21.50;94.20;;;;;;5116133;27;20138;-76
2021/07/28 09:32:32;;;;;;;12.55;11.18;;;21.50;93.70;;;;;;5126236;27;20036;-77
2021/07/28 09:35:01;;;;;;;13.07;11.35;;;21.50;93.90;;;;;;5109007;27;20036;-76
2021/07/28 09:37:28;;;;;;;11.52;10.30;;;21.60;92.90;;;;;;5104572;27;20049;-76
2021/07/28 09:39:54;;;;;;;11.45;10.32;;;21.70;93.40;;;;;;5135140;27;20077;-77
2021/07/28 09:42:27;;;;;;;13.48;9.35;;;21.80;93.20;;;;;;5109255;27;20496;-75
2021/07/28 09:44:59;;;;;;;10.98;9.88;;;21.90;92.00;;;;;;5110757;27;21241;-76
2021/07/28 09:47:26;;;;;;;11.73;10.55;;;21.90;92.10;;;;;;5121737;27;20035;-75
2021/07/28 09:50:01;;;;;;;10.93;9.90;;;21.80;91.80;;;;;;5105966;27;20043;-77
2021/07/28 09:52:32;;;;;;;9.40;8.50;;;21.80;92.20;;;;;;5123705;27;20039;-78
2021/07/28 09:55:09;;;;;;;10.57;9.48;;;21.90;91.20;;;;;;5111052;27;20202;-77
2021/07/28 09:57:35;;;;;;;12.88;10.90;;;21.90;91.10;;;;;;5107754;27;20031;-77
2021/07/28 10:00:07;;;;;;;12.45;11.20;;;21.90;92.10;;;;;;5087214;27;20379;-78
2021/07/28 10:02:34;;;;;;;11.45;10.35;;;22.00;91.70;;;;;;5105467;27;20032;-76
2021/07/28 10:05:02;;;;;;;11.75;10.05;;;22.00;91.40;;;;;;5092231;27;20070;-81
2021/07/28 10:07:30;;;;;;;10.40;9.30;;;22.20;90.50;;;;;;5091488;27;20043;-77
2021/07/28 10:10:11;;;;;;;9.88;8.88;;;22.30;91.40;;;;;;5113029;28;20036;-76
2021/07/28 10:12:39;;;;;;;11.60;9.73;;;22.40;89.40;;;;;;5113443;27;20039;-76
2021/07/28 10:15:09;;;;;;;11.95;9.88;;;22.30;90.00;;;;;;5091657;28;20047;-78
2021/07/28 10:17:40;;;;;;;10.55;9.55;;;22.50;91.10;;;;;;5108820;27;20085;-77
2021/07/28 10:20:10;;;;;;;11.65;10.43;;;22.60;90.30;;;;;;5094504;27;20510;-78
2021/07/28 10:22:37;;;;;;;10.75;9.70;;;22.80;88.50;;;;;;5096651;28;20047;-78
2021/07/28 10:25:11;;;;;;;10.88;9.77;;;22.70;88.00;;;;;;5092695;27;20397;-76
2021/07/28 10:27:59;;;;;;;12.50;10.70;;;22.60;88.50;;;;;;5110843;27;20055;-76
2021/07/28 10:30:26;;;;;;;10.07;8.98;;;22.40;88.30;;;;;;5089168;28;20043;-75
2021/07/28 10:32:52;;;;;;;13.13;9.75;;;22.10;88.50;;;;;;5091324;28;20162;-77
2021/07/28 10:35:23;;;;;;;11.00;9.68;;;21.80;89.50;;;;;;5113206;27;20046;-76
2021/07/28 10:37:57;;;;;;;11.25;10.05;;;21.60;90.60;;;;;;5116405;27;20043;-79
2021/07/28 10:40:31;;;;;;;11.45;10.20;;;21.60;90.60;;;;;;5111767;27;20391;-76
2021/07/28 10:43:00;;;;;;;10.43;9.35;;;21.50;90.70;;;;;;5102749;27;20130;-73
2021/07/28 10:45:47;;;;;;;10.02;9.07;;;21.40;90.50;;;;;;5111380;27;20040;-75
2021/07/28 10:48:41;;;;;;;10.00;8.85;;;21.30;90.70;;;;;;5108230;27;20043;-75
2021/07/28 10:51:07;;;;;;;10.15;9.15;;;21.10;90.90;;;;;;5099455;28;20037;-74
2021/07/28 10:53:46;;;;;;;12.52;11.20;;;21.00;91.70;;;;;;5071330;27;20035;-75
2021/07/28 10:56:12;;;;;;;15.32;11.75;;;20.80;92.80;;;;;;5107813;27;20052;-75
2021/07/28 10:58:38;;;;;;;13.23;11.82;;;20.60;93.10;;;;;;5092537;27;20441;-74
2021/07/28 11:01:04;;;;;;;14.32;12.27;;;20.40;93.80;;;;;;5096611;27;20052;-74
2021/07/28 11:03:32;;;;;;;13.05;11.60;;;20.20;94.30;;;;;;5089693;28;20409;-74
2021/07/28 11:06:20;;;;;;;11.40;10.30;;;20.10;94.60;;;;;;5074637;28;20046;-75
2021/07/28 11:08:49;;;;;;;11.10;9.90;;;20.00;95.00;;;;;;5089459;28;20681;-74
2021/07/28 11:11:23;;;;;;;11.80;10.70;;;19.90;95.00;;;;;;5052356;28;20106;-75
2021/07/28 11:13:50;;;;;;;13.13;10.20;;;19.90;95.10;;;;;;5075930;28;20032;-74
2021/07/28 11:16:16;;;;;;;11.38;9.68;;;19.80;95.20;;;;;;5075103;28;20093;-74
2021/07/28 11:18:49;;;;;;;11.13;10.13;;;19.90;95.20;;;;;;5081648;28;20040;-75
2021/07/28 11:21:17;;;;;;;11.02;9.82;;;19.90;95.20;;;;;;5078867;28;20040;-77
2021/07/28 11:23:55;;;;;;;10.98;9.48;;;19.90;95.40;;;;;;5068655;28;20126;-75
2021/07/28 11:26:28;;;;;;;9.75;8.75;;;19.90;95.50;;;;;;5077890;28;20047;-75
2021/07/28 11:29:01;;;;;;;10.57;9.40;;;19.90;94.90;;;;;;5077037;28;20410;-74
2021/07/28 11:31:38;;;;;;;9.70;8.40;;;19.80;95.10;;;;;;5077046;28;20043;-74
2021/07/28 11:34:05;;;;;;;9.55;8.55;;;19.80;95.40;;;;;;5053866;28;20386;-75
2021/07/28 11:36:35;;;;;;;10.32;9.20;;;19.80;95.50;;;;;;5077354;28;20040;-75
2021/07/28 11:39:28;;;;;;;10.30;9.30;;;19.70;95.60;;;;;;5054643;28;20036;-74
2021/07/28 11:42:25;;;;;;;11.82;9.25;;;19.70;95.80;;;;;;5069750;28;20341;-75
2021/07/28 11:44:52;;;;;;;10.77;8.95;;;19.90;95.80;;;;;;5074042;28;20138;-74
2021/07/28 11:47:26;;;;;;;11.02;8.90;;;20.00;95.90;;;;;;5078002;28;20036;-74
2021/07/28 11:50:05;;;;;;;11.63;9.02;;;20.20;95.80;;;;;;5077784;28;20032;-76
2021/07/28 11:52:34;;;;;;;10.60;8.93;;;20.30;95.40;;;;;;5055176;28;20487;-75
2021/07/28 11:54:59;;;;;;;11.63;8.05;;;20.40;95.10;;;;;;5083236;28;20381;-75
2021/07/28 11:57:25;;;;;;;12.05;7.72;;;20.50;94.80;;;;;;5078388;28;20047;-76
2021/07/28 11:59:51;;;;;;;10.00;7.20;;;20.60;94.20;;;;;;5077446;28;20032;-75
2021/07/28 12:02:22;;;;;;;7.25;6.43;;;20.70;93.70;;;;;;5059263;28;20040;-75
2021/07/28 12:04:48;;;;;;;8.38;6.90;;;20.90;93.20;;;;;;5063551;28;20559;-75
2021/07/28 12:07:18;;;;;;;7.47;6.68;;;20.90;92.90;;;;;;5077186;28;20048;-76
2021/07/28 12:09:57;;;;;;;8.70;6.22;;;20.90;92.50;;;;;;5100252;27;20051;-75
2021/07/28 12:12:24;;;;;;;9.30;7.28;;;20.90;92.30;;;;;;5110670;27;20684;-76
2021/07/28 12:15:05;;;;;;;8.98;7.82;;;20.90;92.60;;;;;;5116334;27;20034;-76
2021/07/28 12:17:31;;;;;;;7.85;7.03;;;20.90;92.90;;;;;;5107282;27;20117;-76
2021/07/28 12:20:15;;;;;;;8.43;7.53;;;20.90;93.10;;;;;;5104303;27;20054;-77
2021/07/28 12:22:42;;;;;;;8.57;6.88;;;20.90;93.00;;;;;;5105465;27;20047;-80
2021/07/28 12:25:23;;;;;;;9.07;6.93;;;20.80;92.80;;;;;;5108849;27;20493;-83
2021/07/28 12:27:57;;;;;;;7.57;6.57;;;20.80;92.80;;;;;;5104731;27;20114;-80
2021/07/28 12:30:25;;;;;;;9.95;6.25;;;20.90;93.10;;;;;;5100454;27;20032;-81
2021/07/28 12:33:17;;;;;;;7.22;6.18;;;21.00;92.10;;;;;;5086205;28;20154;-79
2021/07/28 12:35:55;;;;;;;11.13;6.05;;;21.00;92.20;;;;;;5106296;27;20754;-82
2021/07/28 12:38:21;;;;;;;6.93;5.75;;;21.10;92.20;;;;;;5096085;27;20039;-82
2021/07/28 12:40:56;;;;;;;9.18;6.45;;;21.10;92.30;;;;;;5109317;27;20477;-81
2021/07/28 12:43:24;;;;;;;7.40;5.90;;;21.20;91.80;;;;;;5106329;28;20039;-75